Urjupinsk, Russia
Current Conditions -  °F | °C
As of 2:30 AM on Thursday 23 Oct 2014 (Local Time) from UUOO Reporting Station
Broken Clouds Broken Clouds  
Wind Chill: 17°   Ceiling: 2300
Heat Index: 25°   Visibility: 6mi
Dew Point: 16°   Wind: 7mph
Humidity: 69%   Direction: 360°N
Pressure: 30.06"   Gusts: NA
Location:  50.78°N, 42°E
Report Text: UUOO 222330Z 36003MPS 330V040 9999 BKN023 M04/M09 Q1018 NOSIGRMK 30090070
Loading
Personal Weather Stations






























Interactive Weather Map
Tropical Storm Tracking
New forecast layout! Learn more

10-Day Weather Forecast

Advertisements
Track Severe Weather on mobile